Time;durP1;ratioP1;P1;durP2;ratioP2;P2;SDS_P1;SDS_P2;PMS_P1;PMS_P2;Temp;Humidity;BMP_temperature;BMP_pressure;BME280_temperature;BME280_humidity;BME280_pressure;Samples;Min_cycle;Max_cycle;Signal;HPM_P1;HPM_P2
2021/07/09 00:02:56;;;;;;;4.32;2.10;;;23.20;60.80;;;;;;15693912;28;20032;-65
2021/07/09 00:10:27;;;;;;;4.85;2.40;;;23.20;60.90;;;;;;15690563;28;20514;-65
2021/07/09 00:17:57;;;;;;;3.43;2.40;;;23.20;61.00;;;;;;15692964;28;20111;-66
2021/07/09 00:25:28;;;;;;;6.73;2.67;;;23.20;61.00;;;;;;15691339;28;20040;-65
2021/07/09 00:32:59;;;;;;;6.70;2.50;;;23.20;61.10;;;;;;15690563;28;20039;-65
2021/07/09 00:40:29;;;;;;;8.63;3.23;;;23.20;61.20;;;;;;15688872;28;20040;-65
2021/07/09 00:48:00;;;;;;;3.83;2.17;;;23.20;61.40;;;;;;15689446;28;20025;-65
2021/07/09 00:55:31;;;;;;;5.07;2.53;;;23.20;61.40;;;;;;15691646;28;20510;-65
2021/07/09 01:03:01;;;;;;;6.00;2.60;;;23.20;61.50;;;;;;15688707;28;20455;-65
2021/07/09 01:10:32;;;;;;;4.55;2.60;;;23.20;61.50;;;;;;15688381;28;20025;-65
2021/07/09 01:18:04;;;;;;;4.55;2.80;;;23.20;61.50;;;;;;15688645;28;20479;-65
2021/07/09 01:25:35;;;;;;;3.78;2.55;;;23.10;61.40;;;;;;15687133;28;20025;-65
2021/07/09 03:05:11;;;;;;;3.67;2.60;;;23.00;62.30;;;;;;16832696;23;20042;-68
2021/07/09 03:12:42;;;;;;;3.33;2.63;;;23.10;62.40;;;;;;15572698;28;20084;-69
2021/07/09 03:20:13;;;;;;;4.22;2.70;;;23.10;62.40;;;;;;15596625;23;20046;-72
2021/07/09 03:27:43;;;;;;;6.03;3.10;;;23.00;62.30;;;;;;15571376;28;20026;-72
2021/07/09 03:35:14;;;;;;;3.67;2.60;;;23.00;62.40;;;;;;15572126;28;20029;-73
2021/07/09 03:42:44;;;;;;;3.75;2.65;;;23.00;62.50;;;;;;15570505;28;20548;-72
2021/07/09 03:50:15;;;;;;;5.47;2.97;;;23.00;62.50;;;;;;15570120;28;20041;-72
2021/07/09 03:57:46;;;;;;;5.95;2.90;;;23.00;62.50;;;;;;15569611;28;20472;-72
2021/07/09 04:05:16;;;;;;;3.50;2.97;;;23.00;62.40;;;;;;15569558;28;20026;-73
2021/07/09 04:12:47;;;;;;;3.58;2.75;;;23.00;62.40;;;;;;15568814;28;20041;-73
2021/07/09 04:20:17;;;;;;;3.67;2.70;;;23.00;62.50;;;;;;15568432;28;20073;-72
2021/07/09 04:27:48;;;;;;;3.40;2.40;;;23.00;62.60;;;;;;15569271;28;20029;-72
2021/07/09 04:35:19;;;;;;;4.97;2.60;;;23.00;62.60;;;;;;15569563;28;20104;-72
2021/07/09 04:42:49;;;;;;;3.83;2.50;;;23.00;62.70;;;;;;15569299;28;20480;-72
2021/07/09 04:50:20;;;;;;;3.63;2.78;;;23.00;62.80;;;;;;15568866;28;20022;-72
2021/07/09 04:57:51;;;;;;;4.93;2.80;;;23.00;62.90;;;;;;15566345;28;20026;-72
2021/07/09 05:05:21;;;;;;;5.65;3.05;;;23.00;62.90;;;;;;15565508;28;20084;-72
2021/07/09 05:12:52;;;;;;;3.97;2.73;;;23.00;62.90;;;;;;15565314;28;20505;-72
2021/07/09 05:20:22;;;;;;;3.93;3.00;;;23.10;63.10;;;;;;15547189;28;20397;-72
2021/07/09 05:27:53;;;;;;;4.20;2.70;;;23.10;63.10;;;;;;15563734;28;20064;-72
2021/07/09 05:35:24;;;;;;;4.90;2.78;;;23.10;63.20;;;;;;15564650;28;20461;-72
2021/07/09 05:42:54;;;;;;;3.33;2.67;;;23.00;63.20;;;;;;15565260;28;20467;-72
2021/07/09 05:50:26;;;;;;;6.33;3.70;;;23.00;63.30;;;;;;15563621;28;20033;-72
2021/07/09 05:57:56;;;;;;;10.80;3.90;;;23.00;63.20;;;;;;15563287;28;20033;-72
2021/07/09 06:05:27;;;;;;;5.20;4.03;;;23.00;63.30;;;;;;15563145;28;20499;-72
2021/07/09 06:12:58;;;;;;;7.47;4.13;;;23.00;63.20;;;;;;15562766;28;20033;-72
2021/07/09 06:20:29;;;;;;;7.65;5.15;;;23.00;63.20;;;;;;15561802;28;20511;-72
2021/07/09 06:27:59;;;;;;;8.88;4.95;;;23.00;63.00;;;;;;15561622;28;20469;-72
2021/07/09 06:35:30;;;;;;;5.90;4.25;;;23.00;63.10;;;;;;15561414;28;20032;-72
2021/07/09 06:43:01;;;;;;;7.43;4.68;;;23.00;63.10;;;;;;15570154;28;20121;-72
2021/07/09 06:50:31;;;;;;;8.63;5.40;;;23.00;63.00;;;;;;15573966;28;20018;-72
2021/07/09 06:58:03;;;;;;;8.23;4.90;;;23.00;63.00;;;;;;15556017;28;20037;-72
2021/07/09 07:05:33;;;;;;;14.45;5.15;;;23.00;63.20;;;;;;15573958;28;20487;-72
2021/07/09 07:13:04;;;;;;;6.43;4.70;;;23.00;63.40;;;;;;15572789;28;20029;-73
2021/07/09 07:20:36;;;;;;;9.63;5.43;;;23.00;63.40;;;;;;15573585;28;20468;-72
2021/07/09 07:28:07;;;;;;;8.52;6.43;;;23.00;63.30;;;;;;15553996;28;20032;-72
2021/07/09 07:35:39;;;;;;;9.05;5.78;;;23.00;63.60;;;;;;15571183;28;20029;-72
2021/07/09 07:43:10;;;;;;;12.90;5.53;;;23.00;63.40;;;;;;15552991;28;20149;-72
2021/07/09 07:50:40;;;;;;;11.17;5.90;;;23.00;62.90;;;;;;15551838;28;20084;-72
2021/07/09 07:58:11;;;;;;;15.20;7.10;;;23.00;63.10;;;;;;15552134;28;20024;-72
2021/07/09 08:05:41;;;;;;;14.90;7.40;;;23.00;63.60;;;;;;15551597;28;20876;-71
2021/07/09 08:13:12;;;;;;;11.27;7.68;;;23.00;63.30;;;;;;15570683;28;20058;-71
2021/07/09 08:20:43;;;;;;;10.82;7.28;;;22.90;63.80;;;;;;15568257;28;20076;-71
2021/07/09 08:28:14;;;;;;;10.45;6.28;;;23.00;63.70;;;;;;15567744;28;20097;-72
2021/07/09 08:35:45;;;;;;;16.70;7.03;;;22.90;63.70;;;;;;15567328;28;20034;-71
2021/07/09 08:43:16;;;;;;;9.45;5.40;;;23.00;63.90;;;;;;15566973;28;20477;-72
2021/07/09 08:50:46;;;;;;;7.27;5.20;;;23.00;63.90;;;;;;15549011;28;20542;-71
2021/07/09 08:58:17;;;;;;;7.43;5.10;;;23.00;64.00;;;;;;15566193;28;20037;-71
2021/07/09 09:05:48;;;;;;;8.18;5.55;;;23.00;64.00;;;;;;15564617;28;20125;-71
2021/07/09 09:13:27;;;;;;;10.32;5.05;;;23.00;64.00;;;;;;15565336;28;20037;-72
2021/07/09 09:21:00;;;;;;;9.45;5.22;;;23.00;64.00;;;;;;15590208;23;20049;-66
2021/07/09 09:28:34;;;;;;;7.95;5.53;;;23.00;64.00;;;;;;15564353;28;20060;-66
2021/07/09 09:36:08;;;;;;;7.20;5.13;;;23.00;64.00;;;;;;15565025;28;20025;-66
2021/07/09 09:43:38;;;;;;;7.22;5.38;;;23.00;64.00;;;;;;15564285;28;20423;-66
2021/07/09 09:51:38;;;;;;;9.07;5.30;;;23.00;64.00;;;;;;15545691;28;20014;-66
2021/07/09 09:59:19;;;;;;;10.65;5.93;;;23.00;64.00;;;;;;15563028;28;20100;-67
2021/07/09 10:06:50;;;;;;;8.15;5.40;;;23.00;64.00;;;;;;15563035;28;20373;-66
2021/07/09 10:14:23;;;;;;;7.03;5.43;;;23.00;64.00;;;;;;15561655;28;20117;-67
2021/07/09 10:21:54;;;;;;;7.75;5.22;;;23.00;64.00;;;;;;15562253;28;20022;-66
2021/07/09 10:29:31;;;;;;;7.18;5.40;;;23.00;64.00;;;;;;15545405;28;20046;-66
2021/07/09 10:37:08;;;;;;;7.13;5.45;;;23.00;64.00;;;;;;15543780;28;20057;-66
2021/07/09 10:44:59;;;;;;;8.38;5.47;;;23.00;64.00;;;;;;15543798;28;20030;-66
2021/07/09 10:52:57;;;;;;;7.38;6.13;;;23.00;63.90;;;;;;15561875;28;20128;-67
2021/07/09 11:00:30;;;;;;;6.40;5.57;;;23.00;63.90;;;;;;15560889;28;20022;-66
2021/07/09 11:08:31;;;;;;;7.38;5.68;;;23.00;63.90;;;;;;15542806;28;20029;-66
2021/07/09 11:16:25;;;;;;;7.00;5.70;;;23.00;63.90;;;;;;15560197;28;20102;-66
2021/07/09 11:23:56;;;;;;;8.15;5.80;;;23.00;63.90;;;;;;15560851;28;20041;-67
2021/07/09 11:31:37;;;;;;;7.47;6.10;;;23.00;63.80;;;;;;15569993;28;20057;-66
2021/07/09 11:39:12;;;;;;;8.82;5.80;;;23.00;63.80;;;;;;15553294;28;20036;-66
2021/07/09 11:46:46;;;;;;;7.35;5.63;;;23.00;63.80;;;;;;15570261;28;20033;-66
2021/07/09 11:54:21;;;;;;;6.93;5.60;;;23.00;63.80;;;;;;15569909;28;20034;-66
2021/07/09 12:02:23;;;;;;;8.35;5.85;;;23.00;63.80;;;;;;15571038;28;20040;-67
2021/07/09 12:09:55;;;;;;;7.03;6.20;;;23.00;63.70;;;;;;15540378;28;20435;-66
2021/07/09 12:17:28;;;;;;;6.25;5.57;;;23.10;63.70;;;;;;15568541;28;20037;-66
2021/07/09 12:25:02;;;;;;;6.55;5.80;;;23.10;63.60;;;;;;15568047;28;20034;-66
2021/07/09 12:32:32;;;;;;;7.10;5.80;;;23.00;63.60;;;;;;15568529;28;20026;-67
2021/07/09 12:40:16;;;;;;;7.38;6.00;;;23.00;63.60;;;;;;15566996;28;20036;-66
2021/07/09 12:47:51;;;;;;;6.40;5.40;;;23.10;63.50;;;;;;15566619;28;20037;-66
2021/07/09 12:55:54;;;;;;;7.53;5.13;;;23.10;63.60;;;;;;15567051;28;20486;-66
2021/07/09 13:03:28;;;;;;;6.93;5.35;;;23.10;63.40;;;;;;15533824;28;20040;-66
2021/07/09 13:11:05;;;;;;;7.57;5.57;;;23.10;63.50;;;;;;15566260;28;20026;-66
2021/07/09 13:18:39;;;;;;;6.22;5.15;;;23.10;63.50;;;;;;15564955;28;20555;-66
2021/07/09 13:26:13;;;;;;;6.57;5.43;;;23.10;63.40;;;;;;15564763;28;20061;-67
2021/07/09 13:33:48;;;;;;;7.20;5.60;;;23.10;63.30;;;;;;15564445;28;20058;-66
2021/07/09 13:41:19;;;;;;;6.35;5.38;;;23.10;63.30;;;;;;15564002;28;20030;-67
2021/07/09 13:48:50;;;;;;;5.80;5.20;;;23.10;63.20;;;;;;15545172;28;20507;-66
2021/07/09 13:56:21;;;;;;;6.95;5.30;;;23.10;63.10;;;;;;15563000;28;20503;-66
2021/07/09 14:03:51;;;;;;;6.57;5.60;;;23.10;63.10;;;;;;15563257;28;20026;-66
2021/07/09 14:11:22;;;;;;;6.13;5.23;;;23.10;63.00;;;;;;15562325;28;20087;-66
2021/07/09 14:18:52;;;;;;;6.00;5.40;;;23.10;63.00;;;;;;15562496;28;20045;-66
2021/07/09 14:26:23;;;;;;;6.20;5.27;;;23.10;62.90;;;;;;15561593;28;20484;-66
2021/07/09 14:33:53;;;;;;;8.43;5.53;;;23.10;62.90;;;;;;15562312;28;20041;-67
2021/07/09 14:41:24;;;;;;;6.85;5.10;;;23.10;62.90;;;;;;15543732;28;20121;-66
2021/07/09 14:48:55;;;;;;;6.20;5.00;;;23.10;62.80;;;;;;15543423;28;20109;-66
2021/07/09 14:56:25;;;;;;;7.53;5.50;;;23.10;62.80;;;;;;15543131;28;20076;-66
2021/07/09 15:03:56;;;;;;;5.85;4.75;;;23.10;62.90;;;;;;15569811;28;20527;-66
2021/07/09 15:11:26;;;;;;;5.63;5.03;;;23.10;62.90;;;;;;15572423;28;20391;-66
2021/07/09 15:18:57;;;;;;;5.87;5.23;;;23.10;63.00;;;;;;15596388;23;20049;-73
2021/07/09 15:26:27;;;;;;;6.67;5.13;;;23.10;63.00;;;;;;15571668;28;20471;-73
2021/07/09 15:33:58;;;;;;;6.23;5.20;;;23.10;63.00;;;;;;15571351;28;20472;-73
2021/07/09 15:41:28;;;;;;;6.30;5.28;;;23.10;63.00;;;;;;15570817;28;20109;-73
2021/07/09 15:48:59;;;;;;;5.80;5.20;;;23.10;63.00;;;;;;15570433;28;20084;-73
2021/07/09 15:56:30;;;;;;;6.47;5.13;;;23.10;63.10;;;;;;15569961;28;20500;-73
2021/07/09 16:04:00;;;;;;;5.85;5.22;;;23.10;63.10;;;;;;15570817;28;20029;-73
2021/07/09 16:11:31;;;;;;;5.97;5.03;;;23.10;63.10;;;;;;15568496;28;20061;-73
2021/07/09 16:19:01;;;;;;;6.15;5.00;;;23.10;63.20;;;;;;15568603;28;20479;-73
2021/07/09 16:26:32;;;;;;;7.05;5.35;;;23.10;63.20;;;;;;15568166;28;20105;-73
2021/07/09 16:34:03;;;;;;;6.37;5.47;;;23.10;63.20;;;;;;15568621;28;20579;-73
2021/07/09 16:41:34;;;;;;;5.80;5.07;;;23.10;63.30;;;;;;15567322;28;20479;-73
2021/07/09 16:49:04;;;;;;;6.57;5.27;;;23.10;63.30;;;;;;15566692;28;20072;-74
2021/07/09 16:56:35;;;;;;;5.53;5.00;;;23.10;63.30;;;;;;15567700;28;20034;-73
2021/07/09 17:04:05;;;;;;;8.03;5.40;;;23.10;63.30;;;;;;15567684;28;20029;-73
2021/07/09 17:11:36;;;;;;;6.57;5.60;;;23.10;63.30;;;;;;15566086;28;20029;-73
2021/07/09 17:19:06;;;;;;;6.43;5.40;;;23.10;63.20;;;;;;15565171;28;20038;-73
2021/07/09 17:26:37;;;;;;;6.93;5.70;;;23.10;63.30;;;;;;15564115;28;20464;-73
2021/07/09 17:34:07;;;;;;;5.93;5.20;;;23.10;63.20;;;;;;15565034;28;20558;-73
2021/07/09 17:41:38;;;;;;;8.50;5.83;;;23.10;63.20;;;;;;15565511;28;20034;-73
2021/07/09 17:49:09;;;;;;;7.77;5.67;;;23.10;63.30;;;;;;15565882;28;20038;-73
2021/07/09 17:56:40;;;;;;;5.95;5.05;;;23.10;63.20;;;;;;15565094;28;20030;-73
2021/07/09 18:04:11;;;;;;;7.18;5.60;;;23.10;63.20;;;;;;15563590;28;20034;-73
2021/07/09 18:11:41;;;;;;;9.43;7.70;;;23.10;63.20;;;;;;15563467;28;20060;-74
2021/07/09 18:19:12;;;;;;;8.67;7.10;;;23.10;63.00;;;;;;15568155;28;20053;-73
2021/07/09 18:26:43;;;;;;;8.73;7.10;;;23.10;63.10;;;;;;15565188;28;20641;-73
2021/07/09 18:34:14;;;;;;;8.47;6.87;;;23.00;62.80;;;;;;15563124;28;20506;-77
2021/07/09 18:41:44;;;;;;;8.25;6.65;;;23.00;62.20;;;;;;15561838;28;20480;-74
2021/07/09 18:49:15;;;;;;;9.13;6.07;;;22.90;62.20;;;;;;15561737;28;20447;-73
2021/07/09 18:56:48;;;;;;;7.00;5.88;;;22.90;62.30;;;;;;15544621;28;20084;-75
2021/07/09 19:04:18;;;;;;;8.73;6.75;;;23.00;62.60;;;;;;15561390;28;20499;-75
2021/07/09 19:11:49;;;;;;;8.83;7.47;;;22.90;62.70;;;;;;15560629;28;20029;-76
2021/07/09 19:19:19;;;;;;;10.23;8.02;;;22.90;62.50;;;;;;15560538;28;20041;-76
2021/07/09 19:26:50;;;;;;;9.60;7.15;;;22.80;62.20;;;;;;15560365;28;20559;-76
2021/07/09 19:34:21;;;;;;;9.23;7.38;;;22.80;62.10;;;;;;15560173;28;20030;-76
2021/07/09 19:41:51;;;;;;;10.80;6.93;;;22.80;62.40;;;;;;15559746;28;20029;-75
2021/07/09 19:49:22;;;;;;;8.70;6.68;;;22.80;62.60;;;;;;15565152;28;20045;-73
2021/07/09 19:56:53;;;;;;;7.93;6.60;;;22.80;62.90;;;;;;15570504;28;20108;-76
2021/07/09 20:04:24;;;;;;;9.13;7.47;;;22.80;62.90;;;;;;15569397;28;20464;-75
2021/07/09 20:11:54;;;;;;;8.73;7.17;;;22.80;63.10;;;;;;15551522;28;20028;-75
2021/07/09 20:19:25;;;;;;;8.15;7.35;;;22.80;62.90;;;;;;15568589;28;20995;-75
2021/07/09 20:26:55;;;;;;;17.95;7.75;;;22.80;63.00;;;;;;15568104;28;20433;-76
2021/07/09 20:34:26;;;;;;;8.40;6.20;;;22.70;63.00;;;;;;15550691;28;20068;-75
2021/07/09 20:41:57;;;;;;;9.05;6.25;;;22.70;63.40;;;;;;15568206;28;20107;-76
2021/07/09 20:49:27;;;;;;;8.88;5.68;;;22.80;63.40;;;;;;15567087;28;20025;-75
2021/07/09 20:56:58;;;;;;;8.60;5.30;;;22.80;63.40;;;;;;15549223;28;20112;-74
2021/07/09 21:04:29;;;;;;;14.25;5.85;;;22.80;63.40;;;;;;15566425;28;20519;-75
2021/07/09 21:11:59;;;;;;;12.05;5.70;;;22.80;63.50;;;;;;15565924;28;20097;-75
2021/07/09 21:19:29;;;;;;;9.50;6.07;;;22.80;63.60;;;;;;15590076;23;20050;-67
2021/07/09 21:27:00;;;;;;;8.47;5.93;;;22.80;63.60;;;;;;15565287;28;20033;-67
2021/07/09 21:34:30;;;;;;;8.50;5.70;;;22.80;63.70;;;;;;15565398;28;20034;-67
2021/07/09 21:42:01;;;;;;;8.63;5.37;;;22.80;63.70;;;;;;15565016;28;20057;-67
2021/07/09 21:49:31;;;;;;;6.65;5.25;;;22.80;63.80;;;;;;15563460;28;20469;-67
2021/07/09 21:57:02;;;;;;;6.77;5.77;;;22.80;63.80;;;;;;15563205;28;20065;-68
2021/07/09 22:04:33;;;;;;;6.97;5.40;;;22.80;63.90;;;;;;15563653;28;20445;-67
2021/07/09 22:12:04;;;;;;;8.47;5.40;;;22.90;64.00;;;;;;15562011;28;20030;-67
2021/07/09 22:19:34;;;;;;;7.22;5.40;;;22.80;64.00;;;;;;15561934;28;20053;-67
2021/07/09 22:27:05;;;;;;;8.05;5.70;;;22.80;64.00;;;;;;15561882;28;20042;-67
2021/07/09 22:34:36;;;;;;;6.45;5.45;;;22.80;64.00;;;;;;15561820;28;20029;-67
2021/07/09 22:42:07;;;;;;;9.17;5.60;;;22.80;64.00;;;;;;15561498;28;20065;-67
2021/07/09 22:49:38;;;;;;;9.60;6.07;;;22.90;64.10;;;;;;15561789;28;20496;-67
2021/07/09 22:57:09;;;;;;;7.15;5.38;;;22.80;64.10;;;;;;15561658;28;20021;-67
2021/07/09 23:04:39;;;;;;;6.90;5.53;;;22.80;64.10;;;;;;15561050;28;20026;-67
2021/07/09 23:12:10;;;;;;;6.60;5.45;;;22.80;64.10;;;;;;15560921;28;20018;-67
2021/07/09 23:19:40;;;;;;;8.00;5.87;;;22.80;64.10;;;;;;15543536;28;20041;-67
2021/07/09 23:27:11;;;;;;;6.43;5.17;;;22.80;64.20;;;;;;15570838;28;20034;-67
2021/07/09 23:34:41;;;;;;;8.33;5.50;;;22.90;64.20;;;;;;15566330;28;20411;-67
2021/07/09 23:42:12;;;;;;;9.07;5.60;;;22.80;64.20;;;;;;15592029;28;20034;-67
2021/07/09 23:49:43;;;;;;;8.57;5.70;;;22.80;64.20;;;;;;15572663;28;20048;-67
2021/07/09 23:57:13;;;;;;;7.25;5.45;;;22.80;64.20;;;;;;15571654;28;21009;-67
